sensor_id;sensor_type;location;lat;lon;timestamp;temperature;humidity
15951;DHT22;8074;48.112;11.570;2022-09-03T00:01:26;15.60;99.90
15951;DHT22;8074;48.112;11.570;2022-09-03T00:03:56;15.60;99.90
15951;DHT22;8074;48.112;11.570;2022-09-03T00:06:29;15.40;99.90
15951;DHT22;8074;48.112;11.570;2022-09-03T00:09:02;15.10;99.90
15951;DHT22;8074;48.112;11.570;2022-09-03T00:11:34;15.10;99.90
15951;DHT22;8074;48.112;11.570;2022-09-03T00:14:07;15.10;99.90
15951;DHT22;8074;48.112;11.570;2022-09-03T00:16:45;15.40;99.90
15951;DHT22;8074;48.112;11.570;2022-09-03T00:19:17;15.60;99.90
15951;DHT22;8074;48.112;11.570;2022-09-03T00:21:49;15.60;99.90
15951;DHT22;8074;48.112;11.570;2022-09-03T00:24:22;15.60;99.90
15951;DHT22;8074;48.112;11.570;2022-09-03T00:26:56;15.50;99.90
15951;DHT22;8074;48.112;11.570;2022-09-03T00:29:30;15.10;99.90
15951;DHT22;8074;48.112;11.570;2022-09-03T00:32:02;15.10;99.90
15951;DHT22;8074;48.112;11.570;2022-09-03T00:34:35;15.00;99.90
15951;DHT22;8074;48.112;11.570;2022-09-03T00:37:04;14.90;99.90
15951;DHT22;8074;48.112;11.570;2022-09-03T00:39:32;15.00;99.90
15951;DHT22;8074;48.112;11.570;2022-09-03T00:42:10;14.90;99.90
15951;DHT22;8074;48.112;11.570;2022-09-03T00:47:47;15.10;99.90
15951;DHT22;8074;48.112;11.570;2022-09-03T00:50:20;14.90;99.90
15951;DHT22;8074;48.112;11.570;2022-09-03T00:52:57;14.60;99.90
15951;DHT22;8074;48.112;11.570;2022-09-03T00:55:36;14.70;99.90
15951;DHT22;8074;48.112;11.570;2022-09-03T00:58:14;14.60;99.90
15951;DHT22;8074;48.112;11.570;2022-09-03T01:01:00;14.80;99.90
15951;DHT22;8074;48.112;11.570;2022-09-03T01:03:43;14.70;99.90
15951;DHT22;8074;48.112;11.570;2022-09-03T01:06:18;14.60;99.90
15951;DHT22;8074;48.112;11.570;2022-09-03T01:09:00;14.50;99.90
15951;DHT22;8074;48.112;11.570;2022-09-03T01:11:37;14.50;99.90
15951;DHT22;8074;48.112;11.570;2022-09-03T01:14:20;14.50;99.90
15951;DHT22;8074;48.112;11.570;2022-09-03T01:16:52;14.40;99.90
15951;DHT22;8074;48.112;11.570;2022-09-03T01:19:46;14.40;99.90
15951;DHT22;8074;48.112;11.570;2022-09-03T01:22:39;14.20;99.90
15951;DHT22;8074;48.112;11.570;2022-09-03T01:25:16;14.30;99.90
15951;DHT22;8074;48.112;11.570;2022-09-03T01:28:08;14.20;99.90
15951;DHT22;8074;48.112;11.570;2022-09-03T01:30:56;14.20;99.90
15951;DHT22;8074;48.112;11.570;2022-09-03T01:33:32;14.00;99.90
15951;DHT22;8074;48.112;11.570;2022-09-03T01:36:10;14.10;99.90
15951;DHT22;8074;48.112;11.570;2022-09-03T01:38:41;14.20;99.90
15951;DHT22;8074;48.112;11.570;2022-09-03T01:41:17;14.20;99.90
15951;DHT22;8074;48.112;11.570;2022-09-03T01:44:13;13.90;99.90
15951;DHT22;8074;48.112;11.570;2022-09-03T01:46:44;13.90;99.90
15951;DHT22;8074;48.112;11.570;2022-09-03T01:49:18;13.90;99.90
15951;DHT22;8074;48.112;11.570;2022-09-03T01:51:55;13.90;99.90
15951;DHT22;8074;48.112;11.570;2022-09-03T01:54:50;13.50;99.90
15951;DHT22;8074;48.112;11.570;2022-09-03T01:57:42;13.40;99.90
15951;DHT22;8074;48.112;11.570;2022-09-03T02:00:15;13.60;99.90
15951;DHT22;8074;48.112;11.570;2022-09-03T02:02:47;13.80;99.90
15951;DHT22;8074;48.112;11.570;2022-09-03T02:05:18;14.00;99.90
15951;DHT22;8074;48.112;11.570;2022-09-03T02:07:56;14.00;99.90
15951;DHT22;8074;48.112;11.570;2022-09-03T02:10:27;13.80;99.90
15951;DHT22;8074;48.112;11.570;2022-09-03T02:13:01;14.00;99.90
15951;DHT22;8074;48.112;11.570;2022-09-03T02:15:32;14.00;99.90
15951;DHT22;8074;48.112;11.570;2022-09-03T02:18:04;13.70;99.90
15951;DHT22;8074;48.112;11.570;2022-09-03T02:20:32;13.80;99.90
15951;DHT22;8074;48.112;11.570;2022-09-03T02:23:00;13.70;99.90
15951;DHT22;8074;48.112;11.570;2022-09-03T02:25:31;13.60;99.90
15951;DHT22;8074;48.112;11.570;2022-09-03T02:27:59;13.70;99.90
15951;DHT22;8074;48.112;11.570;2022-09-03T02:30:27;13.60;99.90
15951;DHT22;8074;48.112;11.570;2022-09-03T02:32:55;13.80;99.90
15951;DHT22;8074;48.112;11.570;2022-09-03T02:35:22;13.60;99.90
15951;DHT22;8074;48.112;11.570;2022-09-03T02:37:49;13.30;99.90
15951;DHT22;8074;48.112;11.570;2022-09-03T02:40:17;13.40;99.90
15951;DHT22;8074;48.112;11.570;2022-09-03T02:42:46;13.40;99.90
15951;DHT22;8074;48.112;11.570;2022-09-03T02:45:19;13.20;99.90
15951;DHT22;8074;48.112;11.570;2022-09-03T02:47:51;13.00;99.90
15951;DHT22;8074;48.112;11.570;2022-09-03T02:50:22;13.20;99.90
15951;DHT22;8074;48.112;11.570;2022-09-03T02:52:49;13.30;99.90
15951;DHT22;8074;48.112;11.570;2022-09-03T02:55:16;13.30;99.90
15951;DHT22;8074;48.112;11.570;2022-09-03T02:57:44;13.20;99.90
15951;DHT22;8074;48.112;11.570;2022-09-03T03:00:12;13.20;99.90
15951;DHT22;8074;48.112;11.570;2022-09-03T03:02:39;13.30;99.90
15951;DHT22;8074;48.112;11.570;2022-09-03T03:05:08;13.20;99.90
15951;DHT22;8074;48.112;11.570;2022-09-03T03:07:40;13.20;99.90
15951;DHT22;8074;48.112;11.570;2022-09-03T03:10:08;12.80;99.90
15951;DHT22;8074;48.112;11.570;2022-09-03T03:12:35;12.70;99.90
15951;DHT22;8074;48.112;11.570;2022-09-03T03:15:03;12.70;99.90
15951;DHT22;8074;48.112;11.570;2022-09-03T03:17:31;12.90;99.90
15951;DHT22;8074;48.112;11.570;2022-09-03T03:19:58;13.00;99.90
15951;DHT22;8074;48.112;11.570;2022-09-03T03:22:25;13.00;99.90
15951;DHT22;8074;48.112;11.570;2022-09-03T03:24:53;12.70;99.90
15951;DHT22;8074;48.112;11.570;2022-09-03T03:27:22;12.60;99.90
15951;DHT22;8074;48.112;11.570;2022-09-03T03:29:49;12.70;99.90
15951;DHT22;8074;48.112;11.570;2022-09-03T03:32:16;12.90;99.90
15951;DHT22;8074;48.112;11.570;2022-09-03T03:34:43;12.90;99.90
15951;DHT22;8074;48.112;11.570;2022-09-03T03:37:10;12.60;99.90
15951;DHT22;8074;48.112;11.570;2022-09-03T03:39:37;12.80;99.90
15951;DHT22;8074;48.112;11.570;2022-09-03T03:42:06;12.90;99.90
15951;DHT22;8074;48.112;11.570;2022-09-03T03:44:33;12.70;99.90
15951;DHT22;8074;48.112;11.570;2022-09-03T03:47:01;12.40;99.90
15951;DHT22;8074;48.112;11.570;2022-09-03T03:49:30;12.40;99.90
15951;DHT22;8074;48.112;11.570;2022-09-03T03:51:57;12.70;99.90
15951;DHT22;8074;48.112;11.570;2022-09-03T03:54:25;12.80;99.90
15951;DHT22;8074;48.112;11.570;2022-09-03T03:56:52;12.50;99.90
15951;DHT22;8074;48.112;11.570;2022-09-03T03:59:21;12.20;99.90
15951;DHT22;8074;48.112;11.570;2022-09-03T04:01:48;12.10;99.90
15951;DHT22;8074;48.112;11.570;2022-09-03T04:04:34;12.10;99.90
15951;DHT22;8074;48.112;11.570;2022-09-03T04:07:22;12.40;99.90
15951;DHT22;8074;48.112;11.570;2022-09-03T04:09:50;12.60;99.90
15951;DHT22;8074;48.112;11.570;2022-09-03T04:12:17;12.60;99.90
15951;DHT22;8074;48.112;11.570;2022-09-03T04:14:45;12.60;99.90
15951;DHT22;8074;48.112;11.570;2022-09-03T04:17:12;12.70;99.90
15951;DHT22;8074;48.112;11.570;2022-09-03T04:19:39;12.70;99.90
15951;DHT22;8074;48.112;11.570;2022-09-03T04:22:07;12.80;99.90
15951;DHT22;8074;48.112;11.570;2022-09-03T04:24:34;12.60;99.90
15951;DHT22;8074;48.112;11.570;2022-09-03T04:27:01;12.80;99.90
15951;DHT22;8074;48.112;11.570;2022-09-03T04:29:28;12.90;99.90
15951;DHT22;8074;48.112;11.570;2022-09-03T04:31:57;12.80;99.90
15951;DHT22;8074;48.112;11.570;2022-09-03T04:34:42;12.70;99.90
15951;DHT22;8074;48.112;11.570;2022-09-03T04:37:09;12.70;99.90
15951;DHT22;8074;48.112;11.570;2022-09-03T04:39:36;12.90;99.90
15951;DHT22;8074;48.112;11.570;2022-09-03T04:42:03;13.20;99.90
15951;DHT22;8074;48.112;11.570;2022-09-03T04:44:53;13.20;99.90
15951;DHT22;8074;48.112;11.570;2022-09-03T04:47:21;13.30;99.90
15951;DHT22;8074;48.112;11.570;2022-09-03T04:49:49;13.20;99.90
15951;DHT22;8074;48.112;11.570;2022-09-03T04:52:16;13.20;99.90
15951;DHT22;8074;48.112;11.570;2022-09-03T04:54:44;13.40;99.90
15951;DHT22;8074;48.112;11.570;2022-09-03T04:57:10;13.40;99.90
15951;DHT22;8074;48.112;11.570;2022-09-03T04:59:38;13.20;99.90
15951;DHT22;8074;48.112;11.570;2022-09-03T05:02:25;13.10;99.90
15951;DHT22;8074;48.112;11.570;2022-09-03T05:05:13;13.00;99.90
15951;DHT22;8074;48.112;11.570;2022-09-03T05:08:01;13.10;99.90
15951;DHT22;8074;48.112;11.570;2022-09-03T05:10:57;13.30;99.90
15951;DHT22;8074;48.112;11.570;2022-09-03T05:13:47;13.60;99.90
15951;DHT22;8074;48.112;11.570;2022-09-03T05:16:18;13.60;99.90
15951;DHT22;8074;48.112;11.570;2022-09-03T05:18:51;13.40;99.90
15951;DHT22;8074;48.112;11.570;2022-09-03T05:21:19;13.40;99.90
15951;DHT22;8074;48.112;11.570;2022-09-03T05:23:49;13.60;99.90
15951;DHT22;8074;48.112;11.570;2022-09-03T05:26:19;13.90;99.90
15951;DHT22;8074;48.112;11.570;2022-09-03T05:28:47;14.10;99.90
15951;DHT22;8074;48.112;11.570;2022-09-03T05:31:17;13.90;99.90
15951;DHT22;8074;48.112;11.570;2022-09-03T05:33:45;14.10;99.90
15951;DHT22;8074;48.112;11.570;2022-09-03T05:36:15;14.00;99.90
15951;DHT22;8074;48.112;11.570;2022-09-03T05:38:44;13.90;99.90
15951;DHT22;8074;48.112;11.570;2022-09-03T05:41:13;14.00;99.90
15951;DHT22;8074;48.112;11.570;2022-09-03T05:43:40;14.10;99.90
15951;DHT22;8074;48.112;11.570;2022-09-03T05:46:09;14.40;99.90
15951;DHT22;8074;48.112;11.570;2022-09-03T05:48:39;14.70;99.90
15951;DHT22;8074;48.112;11.570;2022-09-03T05:51:22;14.70;99.90
15951;DHT22;8074;48.112;11.570;2022-09-03T05:53:49;14.60;99.90
15951;DHT22;8074;48.112;11.570;2022-09-03T05:56:31;14.70;99.90
15951;DHT22;8074;48.112;11.570;2022-09-03T05:59:02;14.80;99.90
15951;DHT22;8074;48.112;11.570;2022-09-03T06:01:31;15.10;99.90
15951;DHT22;8074;48.112;11.570;2022-09-03T06:04:00;15.50;99.90
15951;DHT22;8074;48.112;11.570;2022-09-03T06:06:30;15.50;99.90
15951;DHT22;8074;48.112;11.570;2022-09-03T06:08:58;15.70;99.90
15951;DHT22;8074;48.112;11.570;2022-09-03T06:11:28;15.90;99.90
15951;DHT22;8074;48.112;11.570;2022-09-03T06:13:55;15.50;99.90
15951;DHT22;8074;48.112;11.570;2022-09-03T06:16:23;15.70;99.90
15951;DHT22;8074;48.112;11.570;2022-09-03T06:18:50;15.60;99.90
15951;DHT22;8074;48.112;11.570;2022-09-03T06:21:18;15.70;99.90
15951;DHT22;8074;48.112;11.570;2022-09-03T06:23:50;15.90;99.90
15951;DHT22;8074;48.112;11.570;2022-09-03T06:26:18;15.80;99.90
15951;DHT22;8074;48.112;11.570;2022-09-03T06:28:46;15.90;99.90
15951;DHT22;8074;48.112;11.570;2022-09-03T06:31:16;16.10;99.90
15951;DHT22;8074;48.112;11.570;2022-09-03T06:33:44;16.40;99.90
15951;DHT22;8074;48.112;11.570;2022-09-03T06:36:13;16.40;99.90
15951;DHT22;8074;48.112;11.570;2022-09-03T06:38:41;16.60;99.90
15951;DHT22;8074;48.112;11.570;2022-09-03T06:41:15;16.50;99.90
15951;DHT22;8074;48.112;11.570;2022-09-03T06:44:07;16.70;99.90
15951;DHT22;8074;48.112;11.570;2022-09-03T06:47:08;16.60;99.90
15951;DHT22;8074;48.112;11.570;2022-09-03T06:49:59;16.70;99.90
15951;DHT22;8074;48.112;11.570;2022-09-03T06:52:27;16.70;99.90
15951;DHT22;8074;48.112;11.570;2022-09-03T06:54:54;16.60;99.90
15951;DHT22;8074;48.112;11.570;2022-09-03T06:57:41;16.70;99.90
15951;DHT22;8074;48.112;11.570;2022-09-03T07:00:29;16.30;99.90
15951;DHT22;8074;48.112;11.570;2022-09-03T07:03:16;15.90;99.90
15951;DHT22;8074;48.112;11.570;2022-09-03T07:06:06;15.70;99.90
15951;DHT22;8074;48.112;11.570;2022-09-03T07:08:57;15.60;99.90
15951;DHT22;8074;48.112;11.570;2022-09-03T07:14:55;15.80;99.90
15951;DHT22;8074;48.112;11.570;2022-09-03T07:17:43;15.70;99.90
15951;DHT22;8074;48.112;11.570;2022-09-03T07:20:30;15.60;99.90
15951;DHT22;8074;48.112;11.570;2022-09-03T07:23:20;15.60;99.90
15951;DHT22;8074;48.112;11.570;2022-09-03T07:26:10;15.60;99.90
15951;DHT22;8074;48.112;11.570;2022-09-03T07:28:58;15.50;99.90
15951;DHT22;8074;48.112;11.570;2022-09-03T07:31:49;15.50;99.90
15951;DHT22;8074;48.112;11.570;2022-09-03T07:34:37;15.60;99.90
15951;DHT22;8074;48.112;11.570;2022-09-03T07:37:24;15.80;99.90
15951;DHT22;8074;48.112;11.570;2022-09-03T07:40:12;15.80;99.90
15951;DHT22;8074;48.112;11.570;2022-09-03T07:43:00;15.70;99.90
15951;DHT22;8074;48.112;11.570;2022-09-03T07:45:49;15.70;99.90
15951;DHT22;8074;48.112;11.570;2022-09-03T07:48:39;15.80;99.90
15951;DHT22;8074;48.112;11.570;2022-09-03T07:51:30;15.40;99.90
15951;DHT22;8074;48.112;11.570;2022-09-03T07:54:08;15.30;99.90
15951;DHT22;8074;48.112;11.570;2022-09-03T07:56:36;15.20;99.90
15951;DHT22;8074;48.112;11.570;2022-09-03T07:59:05;15.20;99.90
15951;DHT22;8074;48.112;11.570;2022-09-03T08:01:33;15.30;99.90
15951;DHT22;8074;48.112;11.570;2022-09-03T08:04:30;15.30;99.90
15951;DHT22;8074;48.112;11.570;2022-09-03T08:06:58;15.30;99.90
15951;DHT22;8074;48.112;11.570;2022-09-03T08:09:26;15.50;99.90
15951;DHT22;8074;48.112;11.570;2022-09-03T08:11:53;15.70;99.90
15951;DHT22;8074;48.112;11.570;2022-09-03T08:14:21;15.90;99.90
15951;DHT22;8074;48.112;11.570;2022-09-03T08:16:48;16.20;99.90
15951;DHT22;8074;48.112;11.570;2022-09-03T08:19:17;16.50;99.90
15951;DHT22;8074;48.112;11.570;2022-09-03T08:21:46;16.70;99.90
15951;DHT22;8074;48.112;11.570;2022-09-03T08:24:15;16.60;99.90
15951;DHT22;8074;48.112;11.570;2022-09-03T08:27:01;17.00;99.90
15951;DHT22;8074;48.112;11.570;2022-09-03T08:29:48;17.20;99.90
15951;DHT22;8074;48.112;11.570;2022-09-03T08:32:36;17.30;99.90
15951;DHT22;8074;48.112;11.570;2022-09-03T08:35:25;17.90;99.90
15951;DHT22;8074;48.112;11.570;2022-09-03T08:38:12;18.10;99.90
15951;DHT22;8074;48.112;11.570;2022-09-03T08:41:06;18.70;99.90
15951;DHT22;8074;48.112;11.570;2022-09-03T08:44:12;19.20;99.90
15951;DHT22;8074;48.112;11.570;2022-09-03T08:47:19;19.80;99.90
15951;DHT22;8074;48.112;11.570;2022-09-03T08:50:07;19.70;99.90
15951;DHT22;8074;48.112;11.570;2022-09-03T08:52:42;20.10;99.90
15951;DHT22;8074;48.112;11.570;2022-09-03T08:55:19;20.50;99.90
15951;DHT22;8074;48.112;11.570;2022-09-03T08:57:49;21.60;99.90
15951;DHT22;8074;48.112;11.570;2022-09-03T09:00:41;22.50;99.90
15951;DHT22;8074;48.112;11.570;2022-09-03T09:03:32;22.60;99.90
15951;DHT22;8074;48.112;11.570;2022-09-03T09:06:11;22.30;99.90
15951;DHT22;8074;48.112;11.570;2022-09-03T09:11:43;21.50;99.90
15951;DHT22;8074;48.112;11.570;2022-09-03T09:14:19;20.70;99.90
15951;DHT22;8074;48.112;11.570;2022-09-03T09:17:00;20.70;99.90
15951;DHT22;8074;48.112;11.570;2022-09-03T09:19:40;20.40;99.90
15951;DHT22;8074;48.112;11.570;2022-09-03T09:22:18;20.40;99.90
15951;DHT22;8074;48.112;11.570;2022-09-03T09:24:53;20.50;99.90
15951;DHT22;8074;48.112;11.570;2022-09-03T09:27:23;20.90;99.90
15951;DHT22;8074;48.112;11.570;2022-09-03T09:29:52;22.00;99.90
15951;DHT22;8074;48.112;11.570;2022-09-03T09:32:19;23.10;99.90
15951;DHT22;8074;48.112;11.570;2022-09-03T09:34:46;24.00;99.90
15951;DHT22;8074;48.112;11.570;2022-09-03T09:37:15;24.30;99.90
15951;DHT22;8074;48.112;11.570;2022-09-03T09:40:20;24.20;99.90
15951;DHT22;8074;48.112;11.570;2022-09-03T09:43:05;24.40;99.90
15951;DHT22;8074;48.112;11.570;2022-09-03T09:46:04;23.70;99.90
15951;DHT22;8074;48.112;11.570;2022-09-03T09:48:56;23.40;99.90
15951;DHT22;8074;48.112;11.570;2022-09-03T09:51:35;24.20;99.90
15951;DHT22;8074;48.112;11.570;2022-09-03T09:54:12;25.60;99.90
15951;DHT22;8074;48.112;11.570;2022-09-03T09:56:45;27.00;99.90
15951;DHT22;8074;48.112;11.570;2022-09-03T09:59:14;25.20;99.90
15951;DHT22;8074;48.112;11.570;2022-09-03T10:01:42;24.20;99.90
15951;DHT22;8074;48.112;11.570;2022-09-03T10:04:35;24.10;99.90
15951;DHT22;8074;48.112;11.570;2022-09-03T10:07:27;24.80;99.90
15951;DHT22;8074;48.112;11.570;2022-09-03T10:10:05;24.40;99.90
15951;DHT22;8074;48.112;11.570;2022-09-03T10:12:40;24.30;99.90
15951;DHT22;8074;48.112;11.570;2022-09-03T10:15:20;23.60;99.90
15951;DHT22;8074;48.112;11.570;2022-09-03T10:18:01;22.90;99.90
15951;DHT22;8074;48.112;11.570;2022-09-03T10:20:54;23.30;99.90
15951;DHT22;8074;48.112;11.570;2022-09-03T10:23:28;23.70;99.90
15951;DHT22;8074;48.112;11.570;2022-09-03T10:26:02;23.80;99.90
15951;DHT22;8074;48.112;11.570;2022-09-03T10:28:34;24.00;99.90
15951;DHT22;8074;48.112;11.570;2022-09-03T10:31:50;24.50;99.90
15951;DHT22;8074;48.112;11.570;2022-09-03T10:34:38;24.10;99.90
15951;DHT22;8074;48.112;11.570;2022-09-03T10:37:18;24.40;99.90
15951;DHT22;8074;48.112;11.570;2022-09-03T10:40:19;24.50;99.90
15951;DHT22;8074;48.112;11.570;2022-09-03T10:43:29;23.50;99.90
15951;DHT22;8074;48.112;11.570;2022-09-03T10:46:25;23.40;99.90
15951;DHT22;8074;48.112;11.570;2022-09-03T10:49:33;23.90;99.90
15951;DHT22;8074;48.112;11.570;2022-09-03T10:52:28;24.50;99.90
15951;DHT22;8074;48.112;11.570;2022-09-03T10:55:08;24.50;99.90
15951;DHT22;8074;48.112;11.570;2022-09-03T10:57:47;25.00;99.90
15951;DHT22;8074;48.112;11.570;2022-09-03T11:00:16;25.10;99.90
15951;DHT22;8074;48.112;11.570;2022-09-03T11:03:04;25.30;99.90
15951;DHT22;8074;48.112;11.570;2022-09-03T11:05:46;24.60;99.90
15951;DHT22;8074;48.112;11.570;2022-09-03T11:08:17;25.30;99.90
15951;DHT22;8074;48.112;11.570;2022-09-03T11:11:11;25.50;99.90
15951;DHT22;8074;48.112;11.570;2022-09-03T11:13:45;25.50;99.90
15951;DHT22;8074;48.112;11.570;2022-09-03T11:16:35;25.40;99.90
15951;DHT22;8074;48.112;11.570;2022-09-03T11:19:36;25.40;99.90
15951;DHT22;8074;48.112;11.570;2022-09-03T11:22:25;25.40;99.90
15951;DHT22;8074;48.112;11.570;2022-09-03T11:25:16;26.10;99.90
15951;DHT22;8074;48.112;11.570;2022-09-03T11:28:15;26.30;99.90
15951;DHT22;8074;48.112;11.570;2022-09-03T11:31:16;25.90;99.90
15951;DHT22;8074;48.112;11.570;2022-09-03T11:34:07;25.40;99.90
15951;DHT22;8074;48.112;11.570;2022-09-03T11:37:26;25.70;99.90
15951;DHT22;8074;48.112;11.570;2022-09-03T11:40:27;25.40;99.90
15951;DHT22;8074;48.112;11.570;2022-09-03T11:43:26;25.80;99.90
15951;DHT22;8074;48.112;11.570;2022-09-03T11:46:28;25.90;99.90
15951;DHT22;8074;48.112;11.570;2022-09-03T11:49:26;26.00;99.90
15951;DHT22;8074;48.112;11.570;2022-09-03T11:52:25;25.80;99.90
15951;DHT22;8074;48.112;11.570;2022-09-03T11:55:24;25.70;99.90
15951;DHT22;8074;48.112;11.570;2022-09-03T11:58:15;25.70;99.90
15951;DHT22;8074;48.112;11.570;2022-09-03T12:01:10;25.90;99.90
15951;DHT22;8074;48.112;11.570;2022-09-03T12:04:01;26.10;99.90
15951;DHT22;8074;48.112;11.570;2022-09-03T12:07:03;25.30;99.90
15951;DHT22;8074;48.112;11.570;2022-09-03T12:13:32;24.80;99.90
15951;DHT22;8074;48.112;11.570;2022-09-03T12:19:56;28.40;99.90
15951;DHT22;8074;48.112;11.570;2022-09-03T12:22:46;29.80;99.90
15951;DHT22;8074;48.112;11.570;2022-09-03T12:25:42;31.40;99.90
15951;DHT22;8074;48.112;11.570;2022-09-03T12:28:34;31.40;99.90
15951;DHT22;8074;48.112;11.570;2022-09-03T12:31:26;30.50;99.90
15951;DHT22;8074;48.112;11.570;2022-09-03T12:34:17;29.60;99.90
15951;DHT22;8074;48.112;11.570;2022-09-03T12:37:17;27.80;99.90
15951;DHT22;8074;48.112;11.570;2022-09-03T12:39:50;27.50;99.90
15951;DHT22;8074;48.112;11.570;2022-09-03T12:42:24;27.40;99.90
15951;DHT22;8074;48.112;11.570;2022-09-03T12:45:09;27.00;99.90
15951;DHT22;8074;48.112;11.570;2022-09-03T12:47:41;26.70;99.90
15951;DHT22;8074;48.112;11.570;2022-09-03T12:50:11;27.30;99.90
15951;DHT22;8074;48.112;11.570;2022-09-03T12:52:47;28.50;99.90
15951;DHT22;8074;48.112;11.570;2022-09-03T12:55:31;29.80;99.90
15951;DHT22;8074;48.112;11.570;2022-09-03T12:58:04;31.90;99.90
15951;DHT22;8074;48.112;11.570;2022-09-03T13:00:35;33.80;99.90
15951;DHT22;8074;48.112;11.570;2022-09-03T13:03:05;33.90;99.90
15951;DHT22;8074;48.112;11.570;2022-09-03T13:05:41;34.50;99.90
15951;DHT22;8074;48.112;11.570;2022-09-03T13:08:14;36.50;99.90
15951;DHT22;8074;48.112;11.570;2022-09-03T13:10:43;34.50;99.90
15951;DHT22;8074;48.112;11.570;2022-09-03T13:13:20;34.60;99.90
15951;DHT22;8074;48.112;11.570;2022-09-03T13:16:22;33.60;99.90
15951;DHT22;8074;48.112;11.570;2022-09-03T13:18:58;32.20;99.90
15951;DHT22;8074;48.112;11.570;2022-09-03T13:21:35;31.50;99.90
15951;DHT22;8074;48.112;11.570;2022-09-03T13:24:32;31.60;99.90
15951;DHT22;8074;48.112;11.570;2022-09-03T13:27:12;31.80;99.90
15951;DHT22;8074;48.112;11.570;2022-09-03T13:29:55;33.70;99.90
15951;DHT22;8074;48.112;11.570;2022-09-03T13:32:31;37.30;99.90
15951;DHT22;8074;48.112;11.570;2022-09-03T13:35:09;39.40;99.90
15951;DHT22;8074;48.112;11.570;2022-09-03T13:37:41;40.10;99.00
15951;DHT22;8074;48.112;11.570;2022-09-03T13:43:31;37.10;98.50
15951;DHT22;8074;48.112;11.570;2022-09-03T13:46:08;33.50;99.90
15951;DHT22;8074;48.112;11.570;2022-09-03T13:48:40;32.00;99.90
15951;DHT22;8074;48.112;11.570;2022-09-03T13:51:48;29.40;99.90
15951;DHT22;8074;48.112;11.570;2022-09-03T13:54:26;28.70;99.90
15951;DHT22;8074;48.112;11.570;2022-09-03T13:57:04;28.50;99.90
15951;DHT22;8074;48.112;11.570;2022-09-03T13:59:42;27.50;99.90
15951;DHT22;8074;48.112;11.570;2022-09-03T14:02:30;27.30;99.90
15951;DHT22;8074;48.112;11.570;2022-09-03T14:05:06;26.90;99.90
15951;DHT22;8074;48.112;11.570;2022-09-03T14:07:46;26.60;99.90
15951;DHT22;8074;48.112;11.570;2022-09-03T14:10:29;26.30;99.90
15951;DHT22;8074;48.112;11.570;2022-09-03T14:13:09;25.50;99.90
15951;DHT22;8074;48.112;11.570;2022-09-03T14:16:09;25.30;99.90
15951;DHT22;8074;48.112;11.570;2022-09-03T14:18:54;25.20;99.90
15951;DHT22;8074;48.112;11.570;2022-09-03T14:21:51;24.80;99.90
15951;DHT22;8074;48.112;11.570;2022-09-03T14:24:54;24.80;99.90
15951;DHT22;8074;48.112;11.570;2022-09-03T14:27:24;24.30;99.90
15951;DHT22;8074;48.112;11.570;2022-09-03T14:29:57;24.00;99.90
15951;DHT22;8074;48.112;11.570;2022-09-03T14:32:30;22.80;99.90
15951;DHT22;8074;48.112;11.570;2022-09-03T14:40:43;16.10;99.90
15951;DHT22;8074;48.112;11.570;2022-09-03T14:43:29;15.30;99.90
15951;DHT22;8074;48.112;11.570;2022-09-03T14:46:12;15.30;99.90
15951;DHT22;8074;48.112;11.570;2022-09-03T14:49:12;15.30;99.90
15951;DHT22;8074;48.112;11.570;2022-09-03T14:51:54;15.40;99.90
15951;DHT22;8074;48.112;11.570;2022-09-03T14:54:58;15.50;99.90
15951;DHT22;8074;48.112;11.570;2022-09-03T14:57:43;15.60;99.90
15951;DHT22;8074;48.112;11.570;2022-09-03T15:00:15;15.60;99.90
15951;DHT22;8074;48.112;11.570;2022-09-03T15:02:57;15.80;99.90
15951;DHT22;8074;48.112;11.570;2022-09-03T15:05:46;15.70;99.90
15951;DHT22;8074;48.112;11.570;2022-09-03T15:08:27;15.50;99.90
15951;DHT22;8074;48.112;11.570;2022-09-03T15:11:00;15.60;99.90
15951;DHT22;8074;48.112;11.570;2022-09-03T15:13:30;15.60;99.90
15951;DHT22;8074;48.112;11.570;2022-09-03T15:16:08;15.80;99.90
15951;DHT22;8074;48.112;11.570;2022-09-03T15:18:47;15.80;99.90
15951;DHT22;8074;48.112;11.570;2022-09-03T15:21:27;15.80;99.90
15951;DHT22;8074;48.112;11.570;2022-09-03T15:24:04;15.80;99.90
15951;DHT22;8074;48.112;11.570;2022-09-03T15:29:36;15.30;99.90
15951;DHT22;8074;48.112;11.570;2022-09-03T15:32:16;15.20;99.90
15951;DHT22;8074;48.112;11.570;2022-09-03T15:35:06;15.10;99.90
15951;DHT22;8074;48.112;11.570;2022-09-03T15:37:38;15.00;99.90
15951;DHT22;8074;48.112;11.570;2022-09-03T15:40:22;15.00;99.90
15951;DHT22;8074;48.112;11.570;2022-09-03T15:42:54;14.90;99.90
15951;DHT22;8074;48.112;11.570;2022-09-03T15:45:32;15.00;99.90
15951;DHT22;8074;48.112;11.570;2022-09-03T15:50:51;14.90;99.90
15951;DHT22;8074;48.112;11.570;2022-09-03T15:53:29;14.80;99.90
15951;DHT22;8074;48.112;11.570;2022-09-03T15:56:09;14.70;99.90
15951;DHT22;8074;48.112;11.570;2022-09-03T15:58:41;14.80;99.90
15951;DHT22;8074;48.112;11.570;2022-09-03T16:01:21;14.80;99.90
15951;DHT22;8074;48.112;11.570;2022-09-03T16:04:01;14.90;99.90
15951;DHT22;8074;48.112;11.570;2022-09-03T16:06:43;14.90;99.90
15951;DHT22;8074;48.112;11.570;2022-09-03T16:09:27;15.00;99.90
15951;DHT22;8074;48.112;11.570;2022-09-03T16:12:00;15.10;99.90
15951;DHT22;8074;48.112;11.570;2022-09-03T16:14:37;15.50;99.90
15951;DHT22;8074;48.112;11.570;2022-09-03T16:17:17;16.50;99.90
15951;DHT22;8074;48.112;11.570;2022-09-03T16:19:52;17.80;99.90
15951;DHT22;8074;48.112;11.570;2022-09-03T16:22:25;19.30;99.90
15951;DHT22;8074;48.112;11.570;2022-09-03T16:24:59;20.70;99.90
15951;DHT22;8074;48.112;11.570;2022-09-03T16:27:30;21.00;99.90
15951;DHT22;8074;48.112;11.570;2022-09-03T16:30:01;21.10;99.90
15951;DHT22;8074;48.112;11.570;2022-09-03T16:32:48;21.10;99.90
15951;DHT22;8074;48.112;11.570;2022-09-03T16:35:30;21.10;99.90
15951;DHT22;8074;48.112;11.570;2022-09-03T16:38:18;21.30;99.90
15951;DHT22;8074;48.112;11.570;2022-09-03T16:40:53;21.70;99.90
15951;DHT22;8074;48.112;11.570;2022-09-03T16:43:28;22.80;99.90
15951;DHT22;8074;48.112;11.570;2022-09-03T16:46:08;22.50;99.90
15951;DHT22;8074;48.112;11.570;2022-09-03T16:48:43;23.10;99.90
15951;DHT22;8074;48.112;11.570;2022-09-03T16:51:23;23.40;99.90
15951;DHT22;8074;48.112;11.570;2022-09-03T16:54:05;22.30;99.90
15951;DHT22;8074;48.112;11.570;2022-09-03T16:56:45;20.80;99.90
15951;DHT22;8074;48.112;11.570;2022-09-03T16:59:35;19.60;99.90
15951;DHT22;8074;48.112;11.570;2022-09-03T17:02:16;19.20;99.90
15951;DHT22;8074;48.112;11.570;2022-09-03T17:05:02;18.70;99.90
15951;DHT22;8074;48.112;11.570;2022-09-03T17:07:59;18.20;99.90
15951;DHT22;8074;48.112;11.570;2022-09-03T17:10:38;18.20;99.90
15951;DHT22;8074;48.112;11.570;2022-09-03T17:13:28;17.90;99.90